sensor_id;sensor_type;location;lat;lon;timestamp;temperature;humidity
14893;DHT22;7538;53.626;9.906;2023-05-18T00:00:44;9.20;99.90
14893;DHT22;7538;53.626;9.906;2023-05-18T00:03:11;9.20;99.90
14893;DHT22;7538;53.626;9.906;2023-05-18T00:05:38;9.10;99.90
14893;DHT22;7538;53.626;9.906;2023-05-18T00:08:07;9.10;99.90
14893;DHT22;7538;53.626;9.906;2023-05-18T00:10:35;9.10;99.90
14893;DHT22;7538;53.626;9.906;2023-05-18T00:13:02;9.20;99.90
14893;DHT22;7538;53.626;9.906;2023-05-18T00:15:29;9.10;99.90
14893;DHT22;7538;53.626;9.906;2023-05-18T00:17:56;9.20;99.90
14893;DHT22;7538;53.626;9.906;2023-05-18T00:20:24;9.20;99.90
14893;DHT22;7538;53.626;9.906;2023-05-18T00:22:51;9.30;99.90
14893;DHT22;7538;53.626;9.906;2023-05-18T00:25:18;9.30;99.90
14893;DHT22;7538;53.626;9.906;2023-05-18T00:27:46;9.30;99.90
14893;DHT22;7538;53.626;9.906;2023-05-18T00:30:16;9.30;99.90
14893;DHT22;7538;53.626;9.906;2023-05-18T00:32:43;9.30;99.90
14893;DHT22;7538;53.626;9.906;2023-05-18T00:35:10;9.30;99.90
14893;DHT22;7538;53.626;9.906;2023-05-18T00:37:36;9.30;99.90
14893;DHT22;7538;53.626;9.906;2023-05-18T00:40:04;9.30;99.90
14893;DHT22;7538;53.626;9.906;2023-05-18T00:42:32;9.30;99.90
14893;DHT22;7538;53.626;9.906;2023-05-18T00:45:00;9.30;99.90
14893;DHT22;7538;53.626;9.906;2023-05-18T00:47:27;9.30;99.90
14893;DHT22;7538;53.626;9.906;2023-05-18T00:49:53;9.30;99.90
14893;DHT22;7538;53.626;9.906;2023-05-18T00:52:20;9.30;99.90
14893;DHT22;7538;53.626;9.906;2023-05-18T00:54:48;9.30;99.90
14893;DHT22;7538;53.626;9.906;2023-05-18T00:57:15;9.30;99.90
14893;DHT22;7538;53.626;9.906;2023-05-18T00:59:44;9.30;99.90
14893;DHT22;7538;53.626;9.906;2023-05-18T01:02:12;9.30;99.90
14893;DHT22;7538;53.626;9.906;2023-05-18T01:04:40;9.40;99.90
14893;DHT22;7538;53.626;9.906;2023-05-18T01:07:07;9.30;99.90
14893;DHT22;7538;53.626;9.906;2023-05-18T01:09:34;9.40;99.90
14893;DHT22;7538;53.626;9.906;2023-05-18T01:12:06;9.30;99.90
14893;DHT22;7538;53.626;9.906;2023-05-18T01:14:42;9.40;99.90
14893;DHT22;7538;53.626;9.906;2023-05-18T01:17:22;9.40;99.90
14893;DHT22;7538;53.626;9.906;2023-05-18T01:20:13;9.40;99.90
14893;DHT22;7538;53.626;9.906;2023-05-18T01:22:49;9.40;99.90
14893;DHT22;7538;53.626;9.906;2023-05-18T01:25:30;9.40;99.90
14893;DHT22;7538;53.626;9.906;2023-05-18T01:28:02;9.40;99.90
14893;DHT22;7538;53.626;9.906;2023-05-18T01:30:31;9.40;99.90
14893;DHT22;7538;53.626;9.906;2023-05-18T01:32:58;9.40;99.90
14893;DHT22;7538;53.626;9.906;2023-05-18T01:35:25;9.40;99.90
14893;DHT22;7538;53.626;9.906;2023-05-18T01:37:52;9.40;99.90
14893;DHT22;7538;53.626;9.906;2023-05-18T01:40:19;9.40;99.90
14893;DHT22;7538;53.626;9.906;2023-05-18T01:42:50;9.40;99.90
14893;DHT22;7538;53.626;9.906;2023-05-18T01:45:26;9.40;99.90
14893;DHT22;7538;53.626;9.906;2023-05-18T01:47:57;9.40;99.90
14893;DHT22;7538;53.626;9.906;2023-05-18T01:50:30;9.40;99.90
14893;DHT22;7538;53.626;9.906;2023-05-18T01:53:07;9.40;99.90
14893;DHT22;7538;53.626;9.906;2023-05-18T01:55:38;9.40;99.90
14893;DHT22;7538;53.626;9.906;2023-05-18T01:58:07;9.40;99.90
14893;DHT22;7538;53.626;9.906;2023-05-18T02:00:36;9.40;99.90
14893;DHT22;7538;53.626;9.906;2023-05-18T02:03:02;9.40;99.90
14893;DHT22;7538;53.626;9.906;2023-05-18T02:05:29;9.40;99.90
14893;DHT22;7538;53.626;9.906;2023-05-18T02:07:56;9.40;99.90
14893;DHT22;7538;53.626;9.906;2023-05-18T02:10:23;9.40;99.90
14893;DHT22;7538;53.626;9.906;2023-05-18T02:12:50;9.30;99.90
14893;DHT22;7538;53.626;9.906;2023-05-18T02:15:18;9.30;99.90
14893;DHT22;7538;53.626;9.906;2023-05-18T02:17:46;9.30;99.90
14893;DHT22;7538;53.626;9.906;2023-05-18T02:20:13;9.20;99.90
14893;DHT22;7538;53.626;9.906;2023-05-18T02:22:43;9.20;99.90
14893;DHT22;7538;53.626;9.906;2023-05-18T02:25:10;9.20;99.90
14893;DHT22;7538;53.626;9.906;2023-05-18T02:27:37;9.20;99.90
14893;DHT22;7538;53.626;9.906;2023-05-18T02:30:04;9.20;99.90
14893;DHT22;7538;53.626;9.906;2023-05-18T02:32:33;9.20;99.90
14893;DHT22;7538;53.626;9.906;2023-05-18T02:35:10;9.20;99.90
14893;DHT22;7538;53.626;9.906;2023-05-18T02:37:36;9.20;99.90
14893;DHT22;7538;53.626;9.906;2023-05-18T02:40:05;9.20;99.90
14893;DHT22;7538;53.626;9.906;2023-05-18T02:42:33;9.20;99.90
14893;DHT22;7538;53.626;9.906;2023-05-18T02:45:00;9.20;99.90
14893;DHT22;7538;53.626;9.906;2023-05-18T02:47:27;9.20;99.90
14893;DHT22;7538;53.626;9.906;2023-05-18T02:49:54;9.20;99.90
14893;DHT22;7538;53.626;9.906;2023-05-18T02:52:22;9.20;99.90
14893;DHT22;7538;53.626;9.906;2023-05-18T02:54:50;9.30;99.90
14893;DHT22;7538;53.626;9.906;2023-05-18T02:57:19;9.20;99.90
14893;DHT22;7538;53.626;9.906;2023-05-18T02:59:46;9.20;99.90
14893;DHT22;7538;53.626;9.906;2023-05-18T03:02:13;9.10;99.90
14893;DHT22;7538;53.626;9.906;2023-05-18T03:04:41;9.20;99.90
14893;DHT22;7538;53.626;9.906;2023-05-18T03:07:07;9.20;99.90
14893;DHT22;7538;53.626;9.906;2023-05-18T03:09:36;9.20;99.90
14893;DHT22;7538;53.626;9.906;2023-05-18T03:12:03;9.70;99.90
14893;DHT22;7538;53.626;9.906;2023-05-18T03:14:30;9.20;99.90
14893;DHT22;7538;53.626;9.906;2023-05-18T03:16:57;9.20;99.90
14893;DHT22;7538;53.626;9.906;2023-05-18T03:19:24;9.20;99.90
14893;DHT22;7538;53.626;9.906;2023-05-18T03:21:52;9.20;99.90
14893;DHT22;7538;53.626;9.906;2023-05-18T03:24:19;9.10;99.90
14893;DHT22;7538;53.626;9.906;2023-05-18T03:26:47;9.10;99.90
14893;DHT22;7538;53.626;9.906;2023-05-18T03:29:14;9.10;99.90
14893;DHT22;7538;53.626;9.906;2023-05-18T03:31:41;9.10;99.90
14893;DHT22;7538;53.626;9.906;2023-05-18T03:34:08;9.10;99.90
14893;DHT22;7538;53.626;9.906;2023-05-18T03:36:35;9.10;99.90
14893;DHT22;7538;53.626;9.906;2023-05-18T03:39:03;9.10;99.90
14893;DHT22;7538;53.626;9.906;2023-05-18T03:41:31;9.20;99.90
14893;DHT22;7538;53.626;9.906;2023-05-18T03:43:59;9.20;99.90
14893;DHT22;7538;53.626;9.906;2023-05-18T03:46:26;9.20;99.90
14893;DHT22;7538;53.626;9.906;2023-05-18T03:48:53;9.30;99.90
14893;DHT22;7538;53.626;9.906;2023-05-18T03:51:19;9.30;99.90
14893;DHT22;7538;53.626;9.906;2023-05-18T03:53:46;9.30;99.90
14893;DHT22;7538;53.626;9.906;2023-05-18T03:56:13;9.40;99.90
14893;DHT22;7538;53.626;9.906;2023-05-18T03:58:40;9.40;99.90
14893;DHT22;7538;53.626;9.906;2023-05-18T04:01:10;9.40;99.90
14893;DHT22;7538;53.626;9.906;2023-05-18T04:03:37;9.40;99.90
14893;DHT22;7538;53.626;9.906;2023-05-18T04:06:05;9.40;99.90
14893;DHT22;7538;53.626;9.906;2023-05-18T04:08:34;9.50;99.90
14893;DHT22;7538;53.626;9.906;2023-05-18T04:11:01;9.50;99.90
14893;DHT22;7538;53.626;9.906;2023-05-18T04:13:28;9.50;99.90
14893;DHT22;7538;53.626;9.906;2023-05-18T04:15:55;9.50;99.90
14893;DHT22;7538;53.626;9.906;2023-05-18T04:18:24;9.50;99.90
14893;DHT22;7538;53.626;9.906;2023-05-18T04:20:54;9.40;99.90
14893;DHT22;7538;53.626;9.906;2023-05-18T04:23:21;9.40;99.40
14893;DHT22;7538;53.626;9.906;2023-05-18T04:25:48;9.50;99.80
14893;DHT22;7538;53.626;9.906;2023-05-18T04:28:15;9.50;99.30
14893;DHT22;7538;53.626;9.906;2023-05-18T04:30:41;9.60;99.30
14893;DHT22;7538;53.626;9.906;2023-05-18T04:33:08;9.60;99.60
14893;DHT22;7538;53.626;9.906;2023-05-18T04:35:38;9.60;99.60
14893;DHT22;7538;53.626;9.906;2023-05-18T04:38:05;9.70;99.90
14893;DHT22;7538;53.626;9.906;2023-05-18T04:40:32;9.70;99.90
14893;DHT22;7538;53.626;9.906;2023-05-18T04:43:02;9.80;99.40
14893;DHT22;7538;53.626;9.906;2023-05-18T04:45:30;9.90;99.30
14893;DHT22;7538;53.626;9.906;2023-05-18T04:47:58;9.90;98.80
14893;DHT22;7538;53.626;9.906;2023-05-18T04:50:26;10.00;98.70
14893;DHT22;7538;53.626;9.906;2023-05-18T04:52:54;10.00;98.20
14893;DHT22;7538;53.626;9.906;2023-05-18T04:55:22;10.00;97.10
14893;DHT22;7538;53.626;9.906;2023-05-18T04:57:52;10.10;97.10
14893;DHT22;7538;53.626;9.906;2023-05-18T05:00:21;10.10;97.40
14893;DHT22;7538;53.626;9.906;2023-05-18T05:02:48;10.20;97.50
14893;DHT22;7538;53.626;9.906;2023-05-18T05:05:15;10.20;96.90
14893;DHT22;7538;53.626;9.906;2023-05-18T05:07:43;10.20;96.40
14893;DHT22;7538;53.626;9.906;2023-05-18T05:10:11;10.20;96.50
14893;DHT22;7538;53.626;9.906;2023-05-18T05:12:38;10.20;96.80
14893;DHT22;7538;53.626;9.906;2023-05-18T05:15:06;10.30;97.20
14893;DHT22;7538;53.626;9.906;2023-05-18T05:17:33;10.40;97.30
14893;DHT22;7538;53.626;9.906;2023-05-18T05:19:59;10.40;97.10
14893;DHT22;7538;53.626;9.906;2023-05-18T05:22:26;10.40;96.20
14893;DHT22;7538;53.626;9.906;2023-05-18T05:24:53;10.50;96.00
14893;DHT22;7538;53.626;9.906;2023-05-18T05:27:22;10.50;95.90
14893;DHT22;7538;53.626;9.906;2023-05-18T05:29:51;10.50;95.50
14893;DHT22;7538;53.626;9.906;2023-05-18T05:32:17;10.60;95.70
14893;DHT22;7538;53.626;9.906;2023-05-18T05:34:44;10.60;95.90
14893;DHT22;7538;53.626;9.906;2023-05-18T05:37:12;10.70;96.00
14893;DHT22;7538;53.626;9.906;2023-05-18T05:39:39;10.70;95.50
14893;DHT22;7538;53.626;9.906;2023-05-18T05:42:06;10.80;95.00
14893;DHT22;7538;53.626;9.906;2023-05-18T05:44:35;10.80;94.70
14893;DHT22;7538;53.626;9.906;2023-05-18T05:47:02;10.90;94.60
14893;DHT22;7538;53.626;9.906;2023-05-18T05:49:29;10.80;94.90
14893;DHT22;7538;53.626;9.906;2023-05-18T05:51:55;10.80;94.80
14893;DHT22;7538;53.626;9.906;2023-05-18T05:54:22;10.80;94.90
14893;DHT22;7538;53.626;9.906;2023-05-18T05:56:49;10.70;94.10
14893;DHT22;7538;53.626;9.906;2023-05-18T05:59:16;10.80;94.30
14893;DHT22;7538;53.626;9.906;2023-05-18T06:01:44;10.80;94.30
14893;DHT22;7538;53.626;9.906;2023-05-18T06:04:11;10.90;94.20
14893;DHT22;7538;53.626;9.906;2023-05-18T06:06:40;10.80;94.20
14893;DHT22;7538;53.626;9.906;2023-05-18T06:09:08;11.00;94.50
14893;DHT22;7538;53.626;9.906;2023-05-18T06:11:35;11.10;94.10
14893;DHT22;7538;53.626;9.906;2023-05-18T06:14:02;11.10;93.50
14893;DHT22;7538;53.626;9.906;2023-05-18T06:16:29;11.00;92.50
14893;DHT22;7538;53.626;9.906;2023-05-18T06:18:57;10.80;92.50
14893;DHT22;7538;53.626;9.906;2023-05-18T06:21:24;10.70;93.00
14893;DHT22;7538;53.626;9.906;2023-05-18T06:23:51;10.70;93.80
14893;DHT22;7538;53.626;9.906;2023-05-18T06:26:17;10.90;93.60
14893;DHT22;7538;53.626;9.906;2023-05-18T06:28:44;11.00;93.60
14893;DHT22;7538;53.626;9.906;2023-05-18T06:31:11;11.20;93.10
14893;DHT22;7538;53.626;9.906;2023-05-18T06:33:38;11.30;92.80
14893;DHT22;7538;53.626;9.906;2023-05-18T06:36:07;11.40;92.90
14893;DHT22;7538;53.626;9.906;2023-05-18T06:38:34;11.50;92.80
14893;DHT22;7538;53.626;9.906;2023-05-18T06:41:01;11.70;92.30
14893;DHT22;7538;53.626;9.906;2023-05-18T06:43:28;11.60;92.00
14893;DHT22;7538;53.626;9.906;2023-05-18T06:45:55;11.60;92.30
14893;DHT22;7538;53.626;9.906;2023-05-18T06:48:25;11.60;92.00
14893;DHT22;7538;53.626;9.906;2023-05-18T06:50:52;11.70;91.90
14893;DHT22;7538;53.626;9.906;2023-05-18T06:53:20;11.90;92.00
14893;DHT22;7538;53.626;9.906;2023-05-18T06:55:48;11.90;91.30
14893;DHT22;7538;53.626;9.906;2023-05-18T06:58:14;12.00;91.10
14893;DHT22;7538;53.626;9.906;2023-05-18T07:00:41;12.10;91.30
14893;DHT22;7538;53.626;9.906;2023-05-18T07:03:08;12.20;90.80
14893;DHT22;7538;53.626;9.906;2023-05-18T07:05:35;12.40;90.80
14893;DHT22;7538;53.626;9.906;2023-05-18T07:08:02;12.40;91.00
14893;DHT22;7538;53.626;9.906;2023-05-18T07:10:30;12.50;91.00
14893;DHT22;7538;53.626;9.906;2023-05-18T07:12:57;12.70;90.60
14893;DHT22;7538;53.626;9.906;2023-05-18T07:15:24;12.90;90.20
14893;DHT22;7538;53.626;9.906;2023-05-18T07:17:51;12.80;88.20
14893;DHT22;7538;53.626;9.906;2023-05-18T07:20:18;12.70;88.60
14893;DHT22;7538;53.626;9.906;2023-05-18T07:22:45;12.60;88.00
14893;DHT22;7538;53.626;9.906;2023-05-18T07:25:12;12.50;88.80
14893;DHT22;7538;53.626;9.906;2023-05-18T07:27:40;12.80;88.90
14893;DHT22;7538;53.626;9.906;2023-05-18T07:30:08;13.20;86.20
14893;DHT22;7538;53.626;9.906;2023-05-18T07:32:35;13.40;85.00
14893;DHT22;7538;53.626;9.906;2023-05-18T07:35:02;13.90;85.20
14893;DHT22;7538;53.626;9.906;2023-05-18T07:37:29;14.50;83.00
14893;DHT22;7538;53.626;9.906;2023-05-18T07:39:56;16.40;80.70
14893;DHT22;7538;53.626;9.906;2023-05-18T07:42:23;18.10;74.10
14893;DHT22;7538;53.626;9.906;2023-05-18T07:44:51;19.70;70.30
14893;DHT22;7538;53.626;9.906;2023-05-18T07:47:18;21.00;64.10
14893;DHT22;7538;53.626;9.906;2023-05-18T07:49:46;21.20;60.50
14893;DHT22;7538;53.626;9.906;2023-05-18T07:52:12;21.00;58.50
14893;DHT22;7538;53.626;9.906;2023-05-18T07:54:39;20.80;58.80
14893;DHT22;7538;53.626;9.906;2023-05-18T07:57:06;20.90;58.90
14893;DHT22;7538;53.626;9.906;2023-05-18T07:59:33;21.50;58.00
14893;DHT22;7538;53.626;9.906;2023-05-18T08:02:01;21.50;55.60
14893;DHT22;7538;53.626;9.906;2023-05-18T08:04:28;20.80;55.60
14893;DHT22;7538;53.626;9.906;2023-05-18T08:06:55;20.30;56.30
14893;DHT22;7538;53.626;9.906;2023-05-18T08:09:25;19.70;57.30
14893;DHT22;7538;53.626;9.906;2023-05-18T08:11:52;19.30;57.50
14893;DHT22;7538;53.626;9.906;2023-05-18T08:14:18;19.00;58.90
14893;DHT22;7538;53.626;9.906;2023-05-18T08:16:46;18.60;59.40
14893;DHT22;7538;53.626;9.906;2023-05-18T08:19:14;18.20;59.70
14893;DHT22;7538;53.626;9.906;2023-05-18T08:21:41;18.10;61.70
14893;DHT22;7538;53.626;9.906;2023-05-18T08:24:10;17.90;61.00
14893;DHT22;7538;53.626;9.906;2023-05-18T08:26:36;17.90;60.10
14893;DHT22;7538;53.626;9.906;2023-05-18T08:29:04;17.90;59.50
14893;DHT22;7538;53.626;9.906;2023-05-18T08:31:34;18.60;59.30
14893;DHT22;7538;53.626;9.906;2023-05-18T08:34:02;20.50;58.30
14893;DHT22;7538;53.626;9.906;2023-05-18T08:36:32;22.50;54.00
14893;DHT22;7538;53.626;9.906;2023-05-18T08:38:59;24.20;50.20
14893;DHT22;7538;53.626;9.906;2023-05-18T08:41:29;25.80;48.60
14893;DHT22;7538;53.626;9.906;2023-05-18T08:44:00;27.30;45.20
14893;DHT22;7538;53.626;9.906;2023-05-18T08:46:33;28.10;41.90
14893;DHT22;7538;53.626;9.906;2023-05-18T08:49:01;29.00;40.60
14893;DHT22;7538;53.626;9.906;2023-05-18T08:51:33;29.70;39.00
14893;DHT22;7538;53.626;9.906;2023-05-18T08:54:02;30.00;37.20
14893;DHT22;7538;53.626;9.906;2023-05-18T08:56:30;30.30;35.60
14893;DHT22;7538;53.626;9.906;2023-05-18T08:58:58;30.50;34.50
14893;DHT22;7538;53.626;9.906;2023-05-18T09:01:29;30.70;33.60
14893;DHT22;7538;53.626;9.906;2023-05-18T09:03:56;31.40;33.20
14893;DHT22;7538;53.626;9.906;2023-05-18T09:06:24;31.60;32.30
14893;DHT22;7538;53.626;9.906;2023-05-18T09:08:54;31.30;31.60
14893;DHT22;7538;53.626;9.906;2023-05-18T09:11:24;30.10;31.90
14893;DHT22;7538;53.626;9.906;2023-05-18T09:13:52;28.60;32.70
14893;DHT22;7538;53.626;9.906;2023-05-18T09:16:19;27.40;34.20
14893;DHT22;7538;53.626;9.906;2023-05-18T09:18:46;26.70;35.30
14893;DHT22;7538;53.626;9.906;2023-05-18T09:21:13;26.00;35.90
14893;DHT22;7538;53.626;9.906;2023-05-18T09:23:40;25.00;36.10
14893;DHT22;7538;53.626;9.906;2023-05-18T09:26:09;24.60;37.20
14893;DHT22;7538;53.626;9.906;2023-05-18T09:28:39;24.30;38.50
14893;DHT22;7538;53.626;9.906;2023-05-18T09:31:07;24.60;38.70
14893;DHT22;7538;53.626;9.906;2023-05-18T09:33:37;25.40;37.20
14893;DHT22;7538;53.626;9.906;2023-05-18T09:36:05;26.30;36.40
14893;DHT22;7538;53.626;9.906;2023-05-18T09:38:35;26.60;36.20
14893;DHT22;7538;53.626;9.906;2023-05-18T09:41:02;27.30;35.90
14893;DHT22;7538;53.626;9.906;2023-05-18T09:43:31;27.50;35.00
14893;DHT22;7538;53.626;9.906;2023-05-18T09:46:05;27.80;34.50
14893;DHT22;7538;53.626;9.906;2023-05-18T09:48:34;28.10;34.30
14893;DHT22;7538;53.626;9.906;2023-05-18T09:51:01;28.00;34.60
14893;DHT22;7538;53.626;9.906;2023-05-18T09:53:28;28.40;33.90
14893;DHT22;7538;53.626;9.906;2023-05-18T09:55:54;28.50;33.80
14893;DHT22;7538;53.626;9.906;2023-05-18T09:58:21;28.50;31.60
14893;DHT22;7538;53.626;9.906;2023-05-18T10:00:49;28.20;32.30
14893;DHT22;7538;53.626;9.906;2023-05-18T10:03:22;28.00;32.40
14893;DHT22;7538;53.626;9.906;2023-05-18T10:05:50;28.00;33.20
14893;DHT22;7538;53.626;9.906;2023-05-18T10:08:17;28.30;33.40
14893;DHT22;7538;53.626;9.906;2023-05-18T10:10:45;28.20;32.90
14893;DHT22;7538;53.626;9.906;2023-05-18T10:13:13;28.10;34.00
14893;DHT22;7538;53.626;9.906;2023-05-18T10:15:50;27.20;33.60
14893;DHT22;7538;53.626;9.906;2023-05-18T10:18:21;26.70;33.90
14893;DHT22;7538;53.626;9.906;2023-05-18T10:20:49;26.10;34.90
14893;DHT22;7538;53.626;9.906;2023-05-18T10:23:18;26.00;35.50
14893;DHT22;7538;53.626;9.906;2023-05-18T10:25:46;26.00;35.30
14893;DHT22;7538;53.626;9.906;2023-05-18T10:28:17;26.00;34.90
14893;DHT22;7538;53.626;9.906;2023-05-18T10:30:51;26.10;35.00
14893;DHT22;7538;53.626;9.906;2023-05-18T10:33:19;26.20;35.00
14893;DHT22;7538;53.626;9.906;2023-05-18T10:35:47;26.00;35.60
14893;DHT22;7538;53.626;9.906;2023-05-18T10:38:18;25.80;36.20
14893;DHT22;7538;53.626;9.906;2023-05-18T10:40:47;25.50;35.50
14893;DHT22;7538;53.626;9.906;2023-05-18T10:43:15;25.00;35.90
14893;DHT22;7538;53.626;9.906;2023-05-18T10:45:46;25.00;36.20
14893;DHT22;7538;53.626;9.906;2023-05-18T10:48:14;25.20;36.40
14893;DHT22;7538;53.626;9.906;2023-05-18T10:50:42;25.30;36.80
14893;DHT22;7538;53.626;9.906;2023-05-18T10:53:10;25.00;37.00
14893;DHT22;7538;53.626;9.906;2023-05-18T10:55:38;25.00;37.10
14893;DHT22;7538;53.626;9.906;2023-05-18T10:58:09;24.70;37.40
14893;DHT22;7538;53.626;9.906;2023-05-18T11:00:39;24.20;38.00
14893;DHT22;7538;53.626;9.906;2023-05-18T11:03:10;24.00;39.10
14893;DHT22;7538;53.626;9.906;2023-05-18T11:05:43;23.60;39.00
14893;DHT22;7538;53.626;9.906;2023-05-18T11:08:23;23.20;39.30
14893;DHT22;7538;53.626;9.906;2023-05-18T11:10:59;22.80;40.00
14893;DHT22;7538;53.626;9.906;2023-05-18T11:13:28;22.40;41.00
14893;DHT22;7538;53.626;9.906;2023-05-18T11:16:02;22.20;40.90
14893;DHT22;7538;53.626;9.906;2023-05-18T11:18:38;22.10;40.80
14893;DHT22;7538;53.626;9.906;2023-05-18T11:21:18;22.00;40.80
14893;DHT22;7538;53.626;9.906;2023-05-18T11:24:19;21.90;40.80
14893;DHT22;7538;53.626;9.906;2023-05-18T11:26:48;23.60;42.40
14893;DHT22;7538;53.626;9.906;2023-05-18T11:29:16;21.50;42.00
14893;DHT22;7538;53.626;9.906;2023-05-18T11:31:44;21.20;42.30
14893;DHT22;7538;53.626;9.906;2023-05-18T11:34:34;20.90;43.40
14893;DHT22;7538;53.626;9.906;2023-05-18T11:37:02;20.50;44.30
14893;DHT22;7538;53.626;9.906;2023-05-18T11:39:30;20.10;44.20
14893;DHT22;7538;53.626;9.906;2023-05-18T11:41:58;19.90;44.60
14893;DHT22;7538;53.626;9.906;2023-05-18T11:44:27;19.60;45.10
14893;DHT22;7538;53.626;9.906;2023-05-18T11:47:00;19.40;45.50
14893;DHT22;7538;53.626;9.906;2023-05-18T11:49:29;19.10;46.00
14893;DHT22;7538;53.626;9.906;2023-05-18T11:52:05;18.90;45.40
14893;DHT22;7538;53.626;9.906;2023-05-18T11:54:34;18.60;46.40
14893;DHT22;7538;53.626;9.906;2023-05-18T11:57:01;18.20;46.30
14893;DHT22;7538;53.626;9.906;2023-05-18T11:59:32;18.00;47.00
14893;DHT22;7538;53.626;9.906;2023-05-18T12:02:00;17.80;48.10
14893;DHT22;7538;53.626;9.906;2023-05-18T12:04:28;17.90;48.80
14893;DHT22;7538;53.626;9.906;2023-05-18T12:06:56;18.00;49.90
14893;DHT22;7538;53.626;9.906;2023-05-18T12:09:24;18.00;49.50
14893;DHT22;7538;53.626;9.906;2023-05-18T12:11:54;18.00;49.70
14893;DHT22;7538;53.626;9.906;2023-05-18T12:14:21;18.00;50.50
14893;DHT22;7538;53.626;9.906;2023-05-18T12:16:49;18.00;50.40
14893;DHT22;7538;53.626;9.906;2023-05-18T12:19:16;17.90;50.50
14893;DHT22;7538;53.626;9.906;2023-05-18T12:21:44;18.10;49.90
14893;DHT22;7538;53.626;9.906;2023-05-18T12:24:11;18.10;49.30
14893;DHT22;7538;53.626;9.906;2023-05-18T12:26:40;18.20;49.30
14893;DHT22;7538;53.626;9.906;2023-05-18T12:29:07;18.10;49.50
14893;DHT22;7538;53.626;9.906;2023-05-18T12:31:39;18.20;50.10
14893;DHT22;7538;53.626;9.906;2023-05-18T12:34:08;18.20;50.60
14893;DHT22;7538;53.626;9.906;2023-05-18T12:36:40;18.20;50.50
14893;DHT22;7538;53.626;9.906;2023-05-18T12:39:08;18.20;50.30
14893;DHT22;7538;53.626;9.906;2023-05-18T12:41:34;18.20;50.00
14893;DHT22;7538;53.626;9.906;2023-05-18T12:44:03;18.30;49.90
14893;DHT22;7538;53.626;9.906;2023-05-18T12:46:30;18.20;49.40
14893;DHT22;7538;53.626;9.906;2023-05-18T12:48:57;18.20;49.50
14893;DHT22;7538;53.626;9.906;2023-05-18T12:51:31;18.10;50.30
14893;DHT22;7538;53.626;9.906;2023-05-18T12:53:58;18.00;50.90
14893;DHT22;7538;53.626;9.906;2023-05-18T12:56:25;17.80;50.60
14893;DHT22;7538;53.626;9.906;2023-05-18T12:58:57;17.90;50.60
14893;DHT22;7538;53.626;9.906;2023-05-18T13:01:25;18.00;51.70
14893;DHT22;7538;53.626;9.906;2023-05-18T13:03:56;18.00;51.20
14893;DHT22;7538;53.626;9.906;2023-05-18T13:06:24;17.90;51.20
14893;DHT22;7538;53.626;9.906;2023-05-18T13:08:54;18.00;50.90
14893;DHT22;7538;53.626;9.906;2023-05-18T13:11:24;18.00;51.00
14893;DHT22;7538;53.626;9.906;2023-05-18T13:14:00;18.00;51.60
14893;DHT22;7538;53.626;9.906;2023-05-18T13:16:29;17.60;50.00
14893;DHT22;7538;53.626;9.906;2023-05-18T13:18:57;17.90;50.50
14893;DHT22;7538;53.626;9.906;2023-05-18T13:21:24;17.70;50.60
14893;DHT22;7538;53.626;9.906;2023-05-18T13:23:51;17.40;50.80
14893;DHT22;7538;53.626;9.906;2023-05-18T13:26:20;17.40;51.50
14893;DHT22;7538;53.626;9.906;2023-05-18T13:28:50;17.40;52.70
14893;DHT22;7538;53.626;9.906;2023-05-18T13:31:17;17.40;52.50
14893;DHT22;7538;53.626;9.906;2023-05-18T13:33:45;17.50;52.30
14893;DHT22;7538;53.626;9.906;2023-05-18T13:36:13;17.50;52.60
14893;DHT22;7538;53.626;9.906;2023-05-18T13:38:40;17.60;51.70
14893;DHT22;7538;53.626;9.906;2023-05-18T13:41:09;17.70;52.00
14893;DHT22;7538;53.626;9.906;2023-05-18T13:43:36;17.70;52.60
14893;DHT22;7538;53.626;9.906;2023-05-18T13:46:03;17.80;52.70
14893;DHT22;7538;53.626;9.906;2023-05-18T13:48:30;17.70;51.80
14893;DHT22;7538;53.626;9.906;2023-05-18T13:50:58;17.80;51.80
14893;DHT22;7538;53.626;9.906;2023-05-18T13:53:25;17.80;52.00
14893;DHT22;7538;53.626;9.906;2023-05-18T13:55:52;17.80;51.50
14893;DHT22;7538;53.626;9.906;2023-05-18T13:58:19;17.80;51.50
14893;DHT22;7538;53.626;9.906;2023-05-18T14:00:46;17.90;52.10
14893;DHT22;7538;53.626;9.906;2023-05-18T14:03:12;17.90;51.20
14893;DHT22;7538;53.626;9.906;2023-05-18T14:05:41;18.00;50.70
14893;DHT22;7538;53.626;9.906;2023-05-18T14:08:10;17.90;51.50
14893;DHT22;7538;53.626;9.906;2023-05-18T14:10:36;18.00;51.50
14893;DHT22;7538;53.626;9.906;2023-05-18T14:13:03;18.10;50.90
14893;DHT22;7538;53.626;9.906;2023-05-18T14:15:30;18.10;51.40
14893;DHT22;7538;53.626;9.906;2023-05-18T14:17:57;18.20;50.20
14893;DHT22;7538;53.626;9.906;2023-05-18T14:20:24;18.20;50.20
14893;DHT22;7538;53.626;9.906;2023-05-18T14:22:50;18.20;49.90
14893;DHT22;7538;53.626;9.906;2023-05-18T14:25:19;18.10;50.10
14893;DHT22;7538;53.626;9.906;2023-05-18T14:27:46;18.00;50.40
14893;DHT22;7538;53.626;9.906;2023-05-18T14:30:13;18.00;50.70
14893;DHT22;7538;53.626;9.906;2023-05-18T14:32:39;18.10;50.10
14893;DHT22;7538;53.626;9.906;2023-05-18T14:35:07;18.20;50.70
14893;DHT22;7538;53.626;9.906;2023-05-18T14:37:34;18.10;49.80
14893;DHT22;7538;53.626;9.906;2023-05-18T14:40:00;18.10;50.00
14893;DHT22;7538;53.626;9.906;2023-05-18T14:42:30;18.00;49.90
14893;DHT22;7538;53.626;9.906;2023-05-18T14:44:56;18.00;49.40
14893;DHT22;7538;53.626;9.906;2023-05-18T14:47:23;17.90;49.90
14893;DHT22;7538;53.626;9.906;2023-05-18T14:49:50;17.90;50.10
14893;DHT22;7538;53.626;9.906;2023-05-18T14:52:17;17.80;51.10
14893;DHT22;7538;53.626;9.906;2023-05-18T14:54:44;17.70;52.00
14893;DHT22;7538;53.626;9.906;2023-05-18T14:57:12;17.80;51.80
14893;DHT22;7538;53.626;9.906;2023-05-18T14:59:40;17.40;51.30
14893;DHT22;7538;53.626;9.906;2023-05-18T15:02:07;17.80;51.40
14893;DHT22;7538;53.626;9.906;2023-05-18T15:04:34;17.60;51.40
14893;DHT22;7538;53.626;9.906;2023-05-18T15:07:01;17.50;52.30
14893;DHT22;7538;53.626;9.906;2023-05-18T15:09:29;17.50;52.70
14893;DHT22;7538;53.626;9.906;2023-05-18T15:11:55;17.50;52.70
14893;DHT22;7538;53.626;9.906;2023-05-18T15:14:22;17.50;53.50
14893;DHT22;7538;53.626;9.906;2023-05-18T15:16:50;17.60;53.60
14893;DHT22;7538;53.626;9.906;2023-05-18T15:19:17;17.60;52.80
14893;DHT22;7538;53.626;9.906;2023-05-18T15:21:44;17.60;53.50
14893;DHT22;7538;53.626;9.906;2023-05-18T15:24:11;17.60;53.40
14893;DHT22;7538;53.626;9.906;2023-05-18T15:26:38;17.60;52.60
14893;DHT22;7538;53.626;9.906;2023-05-18T15:29:05;17.70;52.40
14893;DHT22;7538;53.626;9.906;2023-05-18T15:31:32;17.60;52.20
14893;DHT22;7538;53.626;9.906;2023-05-18T15:34:02;17.50;51.80
14893;DHT22;7538;53.626;9.906;2023-05-18T15:36:29;17.40;53.10
14893;DHT22;7538;53.626;9.906;2023-05-18T15:38:56;17.40;53.20
14893;DHT22;7538;53.626;9.906;2023-05-18T15:41:23;17.30;53.20
14893;DHT22;7538;53.626;9.906;2023-05-18T15:43:52;17.30;53.70
14893;DHT22;7538;53.626;9.906;2023-05-18T15:46:19;17.30;54.30
14893;DHT22;7538;53.626;9.906;2023-05-18T15:48:46;17.20;54.30
14893;DHT22;7538;53.626;9.906;2023-05-18T15:51:14;17.30;54.10
14893;DHT22;7538;53.626;9.906;2023-05-18T15:53:41;17.40;54.70
14893;DHT22;7538;53.626;9.906;2023-05-18T15:56:08;17.30;53.90